Time;durP1;ratioP1;P1;durP2;ratioP2;P2;SDS_P1;SDS_P2;PMS_P1;PMS_P2;Temp;Humidity;BMP_temperature;BMP_pressure;BME280_temperature;BME280_humidity;BME280_pressure;Samples;Min_cycle;Max_cycle;Signal;HPM_P1;HPM_P2
2022/12/29 00:02:23;;;;;;;7.58;4.90;;;;;;;7.22;50.60;102884.14;1668789;85;21033;-57
2022/12/29 00:04:50;;;;;;;7.28;4.72;;;;;;;7.22;50.72;102885.03;1664571;85;21164;-57
2022/12/29 00:07:18;;;;;;;6.37;4.90;;;;;;;7.23;50.85;102880.73;1663445;85;21066;-57
2022/12/29 00:09:46;;;;;;;7.50;4.83;;;;;;;7.26;50.84;102884.67;1648696;86;21106;-57
2022/12/29 00:12:12;;;;;;;7.80;4.92;;;;;;;7.29;51.03;102878.30;1631790;86;21076;-57
2022/12/29 00:17:23;;;;;;;8.65;5.30;;;;;;;7.37;51.25;102874.18;1656490;82;21046;-56
2022/12/29 00:36:34;;;;;;;9.48;6.40;;;;;;;7.47;53.01;102860.61;1763366;81;21015;-57
2022/12/29 00:44:35;;;;;;;8.55;6.33;;;;;;;7.54;54.57;102839.21;1692077;83;21125;-57
2022/12/29 00:47:04;;;;;;;8.43;5.80;;;;;;;7.60;55.17;102840.65;1687691;84;21043;-57
2022/12/29 00:49:33;;;;;;;8.28;5.67;;;;;;;7.66;55.49;102834.72;1702211;83;21099;-57
2022/12/29 00:52:05;;;;;;;8.08;5.83;;;;;;;7.72;55.77;102833.56;1697222;83;21085;-57
2022/12/29 00:54:37;;;;;;;9.45;6.30;;;;;;;7.77;55.89;102837.16;1685473;83;21018;-57
2022/12/29 00:57:05;;;;;;;;;;;;;;;7.83;56.00;102847.21;1701782;83;21143;-57
2022/12/29 00:59:31;;;;;;;8.10;5.65;;;;;;;7.89;56.18;102846.05;1705544;83;20082;-57
2022/12/29 01:01:58;;;;;;;8.63;5.12;;;;;;;7.94;56.43;102840.56;1683606;84;21081;-57
2022/12/29 01:04:25;;;;;;;7.87;5.85;;;;;;;8.00;56.55;102834.63;1692019;83;21112;-57
2022/12/29 01:06:53;;;;;;;8.30;5.60;;;;;;;8.04;56.68;102838.62;1691695;83;21553;-57
2022/12/29 01:12:05;;;;;;;7.22;4.50;;;;;;;8.14;56.61;102845.75;1700361;83;21166;-56
2022/12/29 01:14:32;;;;;;;8.35;5.20;;;;;;;8.19;56.35;102840.67;1700049;83;21033;-57
2022/12/29 01:16:59;;;;;;;7.40;5.95;;;;;;;8.24;56.05;102841.20;1692944;83;21641;-57
2022/12/29 01:19:26;;;;;;;11.00;6.28;;;;;;;8.29;55.89;102844.34;1691445;83;21053;-57
2022/12/29 01:21:53;;;;;;;8.55;5.33;;;;;;;8.32;55.73;102849.20;1699231;83;21090;-57
2022/12/29 01:24:20;;;;;;;8.55;5.90;;;;;;;8.34;55.58;102844.03;1684841;83;21121;-57
2022/12/29 01:26:48;;;;;;;8.20;6.12;;;;;;;8.35;55.42;102841.88;1692395;83;21458;-57
2022/12/29 01:29:17;;;;;;;7.70;5.97;;;;;;;8.34;55.29;102831.95;1695215;83;21092;-57
2022/12/29 01:31:46;;;;;;;7.10;5.30;;;;;;;8.33;55.11;102830.19;1689064;83;21038;-57
2022/12/29 01:34:12;;;;;;;7.90;5.75;;;;;;;8.32;54.94;102827.16;1693671;83;21536;-57
2022/12/29 01:36:39;;;;;;;8.68;5.28;;;;;;;8.30;54.78;102830.55;1701255;83;21583;-57
2022/12/29 01:39:06;;;;;;;8.93;5.30;;;;;;;8.29;54.68;102833.97;1699523;83;21078;-57
2022/12/29 01:41:34;;;;;;;7.90;4.75;;;;;;;8.28;54.38;102824.46;1703978;83;21096;-57
2022/12/29 01:44:01;;;;;;;6.30;4.72;;;;;;;8.28;54.28;102819.27;1716966;81;21101;-57
2022/12/29 01:46:40;;;;;;;5.62;4.72;;;;;;;8.25;54.10;102804.52;1762114;80;21085;-57
2022/12/29 01:49:15;;;;;;;7.95;5.20;;;;;;;8.27;53.90;102808.43;1767933;80;21134;-57
2022/12/29 01:51:51;;;;;;;9.08;4.15;;;;;;;8.22;53.71;102792.32;1755426;80;21128;-57
2022/12/29 01:54:26;;;;;;;7.78;3.70;;;;;;;8.20;53.68;102790.12;1757359;80;21071;-57
2022/12/29 01:56:56;;;;;;;5.87;3.45;;;;;;;8.16;53.73;102788.31;1743130;81;21561;-57
2022/12/29 01:59:26;;;;;;;5.95;3.15;;;;;;;8.13;53.77;102789.56;1762212;80;21058;-57
2022/12/29 02:01:53;;;;;;;3.35;2.70;;;;;;;8.11;53.89;102797.73;1755619;80;21652;-57
2022/12/29 02:04:19;;;;;;;5.33;3.02;;;;;;;8.10;54.01;102789.48;1762080;80;21030;-57
2022/12/29 02:06:51;;;;;;;3.22;2.37;;;;;;;8.10;54.22;102776.52;1771906;80;21089;-57
2022/12/29 02:09:19;;;;;;;5.42;2.67;;;;;;;8.10;54.40;102773.92;1733584;81;20979;-57
2022/12/29 02:11:46;;;;;;;5.60;2.90;;;;;;;8.14;54.48;102778.33;1759523;80;21037;-57
2022/12/29 02:14:13;;;;;;;5.10;2.77;;;;;;;8.17;54.53;102783.59;1723054;81;21538;-57
2022/12/29 02:17:01;;;;;;;3.30;2.47;;;;;;;8.21;54.69;102775.03;1762318;80;21033;-57
2022/12/29 02:19:48;;;;;;;3.65;2.52;;;;;;;8.24;54.78;102769.88;1751018;80;21033;-57
2022/12/29 02:22:47;;;;;;;3.20;2.47;;;;;;;8.31;54.80;102772.63;1747538;80;21004;-57
2022/12/29 02:25:23;;;;;;;5.75;2.20;;;;;;;8.33;54.93;102769.23;1753079;80;21021;-57
2022/12/29 02:28:18;;;;;;;5.42;2.27;;;;;;;8.34;55.23;102769.70;1747122;80;21063;-57
2022/12/29 02:31:28;;;;;;;3.58;1.87;;;;;;;8.35;55.34;102770.55;1750505;80;21490;-57
2022/12/29 02:34:28;;;;;;;4.80;1.90;;;;;;;8.37;55.47;102772.75;1758133;80;21086;-57
2022/12/29 02:37:08;;;;;;;3.05;1.70;;;;;;;8.39;55.98;102765.91;1724254;80;21065;-57
2022/12/29 02:39:53;;;;;;;3.08;1.60;;;;;;;8.42;56.12;102764.23;1771254;80;21053;-57
2022/12/29 02:42:34;;;;;;;2.85;2.17;;;;;;;8.47;56.34;102755.24;1711916;83;21086;-56
2022/12/29 02:45:09;;;;;;;3.80;2.00;;;;;;;8.52;56.66;102744.50;1628489;87;21553;-57
2022/12/29 02:48:01;;;;;;;6.78;2.02;;;;;;;8.57;56.88;102745.48;1616745;87;21582;-57
2022/12/29 02:50:37;;;;;;;5.05;2.17;;;;;;;8.63;56.80;102750.77;1612923;87;21115;-57
2022/12/29 02:53:11;;;;;;;2.92;1.62;;;;;;;8.66;56.80;102749.09;1574403;90;21125;-57
2022/12/29 02:55:37;;;;;;;4.47;1.30;;;;;;;8.71;56.72;102741.41;1563065;90;21620;-57
2022/12/29 02:58:20;;;;;;;2.50;1.45;;;;;;;8.77;56.61;102751.89;1558878;91;21126;-57
2022/12/29 03:02:16;;;;;;;2.02;1.37;;;;;;;8.81;56.38;102748.49;1567934;91;21110;-57
2022/12/29 03:04:25;;;;;;;3.80;1.45;;;;;;;8.90;56.27;102746.06;1570289;90;21111;-56
2022/12/29 03:06:58;;;;;;;3.58;1.32;;;;;;;8.98;55.72;102748.36;1574688;90;21363;-57
2022/12/29 03:09:52;;;;;;;3.75;1.90;;;;;;;9.03;55.21;102742.38;1565168;90;21624;-57
2022/12/29 03:18:45;;;;;;;4.15;1.62;;;;;;;9.13;54.51;102744.69;1538691;91;21094;-57
2022/12/29 03:24:27;;;;;;;3.70;1.52;;;;;;;9.10;54.37;102744.66;1480736;95;21211;-57
2022/12/29 03:26:58;;;;;;;6.70;3.10;;;;;;;9.08;54.40;102734.67;1465548;95;21115;-57
2022/12/29 03:29:27;;;;;;;;;;;;;;;9.04;54.35;102731.58;1468301;95;21158;-57
2022/12/29 03:31:54;;;;;;;10.50;5.12;;;;;;;9.01;54.40;102730.22;1463072;96;20180;-56
2022/12/29 03:34:21;;;;;;;7.67;3.12;;;;;;;8.99;54.53;102730.62;1455424;97;21167;-57
2022/12/29 03:36:53;;;;;;;4.83;2.40;;;;;;;9.00;54.71;102728.48;1475487;96;21919;-56
2022/12/29 03:39:22;;;;;;;2.70;1.47;;;;;;;9.00;54.71;102724.59;1372311;103;21183;-56
2022/12/29 03:41:49;;;;;;;4.90;2.70;;;;;;;9.01;54.70;102727.63;1369401;104;21131;-57
2022/12/29 03:44:15;;;;;;;5.95;2.27;;;;;;;9.03;54.59;102719.43;1385906;101;21128;-57
2022/12/29 03:46:42;;;;;;;3.92;1.95;;;;;;;9.05;54.42;102715.13;1389743;101;21108;-57
2022/12/29 03:49:11;;;;;;;3.80;2.12;;;;;;;9.09;54.45;102717.38;1393878;100;21289;-57
2022/12/29 03:51:39;;;;;;;1.80;1.40;;;;;;;9.13;54.78;102725.66;1449094;97;21832;-57
2022/12/29 03:54:08;;;;;;;2.87;1.62;;;;;;;9.15;54.66;102726.11;1442166;98;21142;-57
2022/12/29 03:56:36;;;;;;;2.83;1.70;;;;;;;9.18;54.71;102722.69;1452786;97;21293;-57
2022/12/29 03:59:03;;;;;;;3.62;1.95;;;;;;;9.18;54.77;102715.78;1480973;94;21095;-56
2022/12/29 04:01:31;;;;;;;5.92;2.05;;;;;;;9.20;54.92;102712.78;1527800;92;21161;-56
2022/12/29 04:03:58;;;;;;;7.22;2.70;;;;;;;9.22;54.86;102717.57;1482458;95;21642;-57
2022/12/29 04:06:25;;;;;;;10.58;2.62;;;;;;;9.23;54.99;102722.34;1490368;95;21166;-57
2022/12/29 04:08:54;;;;;;;4.50;2.52;;;;;;;9.27;55.25;102716.34;1490147;95;21166;-57
2022/12/29 04:11:22;;;;;;;3.87;1.98;;;;;;;9.27;55.10;102721.13;1495827;94;21166;-56
2022/12/29 04:13:49;;;;;;;5.08;2.20;;;;;;;9.30;54.70;102711.17;1491030;95;21128;-57
2022/12/29 04:16:18;;;;;;;4.03;2.00;;;;;;;9.33;54.55;102719.91;1527716;93;21129;-57
2022/12/29 04:18:45;;;;;;;3.17;1.70;;;;;;;9.36;54.55;102719.94;1618352;85;21082;-57
2022/12/29 04:21:12;;;;;;;4.37;2.10;;;;;;;9.41;54.48;102726.09;1630722;86;21071;-57
2022/12/29 04:23:40;;;;;;;4.28;1.67;;;;;;;9.44;54.22;102726.11;1637512;86;21072;-56
2022/12/29 04:26:09;;;;;;;2.95;1.42;;;;;;;9.46;53.97;102727.01;1633665;86;21595;-57
2022/12/29 04:28:38;;;;;;;3.83;1.55;;;;;;;9.48;54.00;102725.30;1625136;87;21050;-56
2022/12/29 04:31:23;;;;;;;2.60;1.35;;;;;;;9.50;54.30;102733.99;1616588;86;21766;-57
2022/12/29 04:33:51;;;;;;;4.00;1.45;;;;;;;9.52;54.29;102734.89;1631797;87;21061;-56
2022/12/29 04:36:17;;;;;;;5.35;1.40;;;;;;;9.53;54.14;102728.86;1667775;84;21064;-57
2022/12/29 04:38:45;;;;;;;1.90;1.17;;;;;;;9.53;54.06;102731.45;1755165;80;21027;-57
2022/12/29 04:41:11;;;;;;;6.15;1.77;;;;;;;9.55;54.30;102732.34;1754187;80;21066;-56
2022/12/29 04:43:40;;;;;;;3.55;1.20;;;;;;;9.58;54.42;102736.72;1740525;81;21042;-56
2022/12/29 04:46:18;;;;;;;4.33;1.30;;;;;;;9.61;54.25;102744.13;1742237;81;21089;-57
2022/12/29 04:49:08;;;;;;;1.98;1.35;;;;;;;9.66;53.93;102727.30;1656746;84;21050;-56
2022/12/29 04:51:32;;;;;;;3.15;1.55;;;;;;;9.67;53.90;102729.91;1663943;85;21134;-57
2022/12/29 04:53:59;;;;;;;3.47;1.37;;;;;;;9.70;53.86;102733.86;1751978;82;21081;-57
2022/12/29 04:56:27;;;;;;;2.20;1.20;;;;;;;9.72;53.73;102738.66;1748376;81;21097;-57
2022/12/29 04:58:54;;;;;;;3.05;1.20;;;;;;;9.73;53.77;102739.50;1659705;85;21055;-57
2022/12/29 05:01:21;;;;;;;2.95;1.32;;;;;;;9.73;53.61;102731.70;1686593;84;21600;-57
2022/12/29 05:03:51;;;;;;;4.75;1.50;;;;;;;9.72;53.67;102738.66;1671454;84;21058;-57
2022/12/29 05:06:18;;;;;;;5.55;1.55;;;;;;;9.72;53.71;102739.95;1694833;84;21584;-56
2022/12/29 05:08:45;;;;;;;3.95;1.37;;;;;;;9.71;53.87;102729.09;1734880;81;21067;-57
2022/12/29 05:11:12;;;;;;;4.70;1.20;;;;;;;9.72;54.20;102727.38;1740775;82;21038;-56
2022/12/29 05:13:39;;;;;;;4.10;1.35;;;;;;;9.73;54.19;102728.69;1736541;82;21106;-57
2022/12/29 05:16:06;;;;;;;2.52;1.37;;;;;;;9.75;54.10;102728.28;1733510;82;21057;-57
2022/12/29 05:18:34;;;;;;;4.40;1.55;;;;;;;9.77;54.05;102722.67;1726474;81;21050;-57
2022/12/29 05:21:00;;;;;;;3.08;1.70;;;;;;;9.80;53.82;102716.64;1724961;82;21046;-56
2022/12/29 05:23:28;;;;;;;4.42;1.67;;;;;;;9.83;54.29;102709.75;1743275;80;21030;-57
2022/12/29 05:25:56;;;;;;;3.95;1.52;;;;;;;9.84;54.59;102703.70;1756151;80;21105;-57
2022/12/29 09:06:31;;;;;;;5.83;2.10;;;;;;;9.15;69.19;102687.15;1804477;78;26552;-56
2022/12/29 09:08:57;;;;;;;5.67;2.05;;;;;;;10.31;64.15;102680.84;1754829;81;21116;-56
2022/12/29 09:11:25;;;;;;;6.35;2.40;;;;;;;10.61;62.88;102679.81;1756772;80;21025;-56
2022/12/29 09:13:53;;;;;;;7.08;2.45;;;;;;;10.76;61.98;102681.67;1758440;80;21064;-56
2022/12/29 09:16:21;;;;;;;8.73;2.87;;;;;;;10.89;61.50;102686.12;1757647;80;21057;-56
2022/12/29 09:18:48;;;;;;;16.52;2.45;;;;;;;11.02;61.38;102685.38;1754944;80;21032;-56
2022/12/29 09:21:16;;;;;;;3.60;1.95;;;;;;;11.13;61.07;102688.90;1761165;80;21078;-56
2022/12/29 09:23:43;;;;;;;4.28;2.15;;;;;;;11.24;60.49;102675.94;1758056;80;21634;-56
2022/12/29 09:26:10;;;;;;;6.08;1.98;;;;;;;11.33;60.17;102682.06;1753496;81;21049;-56
2022/12/29 09:28:36;;;;;;;5.45;1.92;;;;;;;11.43;59.92;102683.89;1761334;80;21545;-56
2022/12/29 09:31:04;;;;;;;7.78;2.17;;;;;;;11.51;59.51;102680.02;1764687;80;21041;-56
2022/12/29 09:33:33;;;;;;;5.15;2.08;;;;;;;11.60;59.45;102675.27;1753686;81;20999;-56
2022/12/29 09:35:59;;;;;;;5.60;2.75;;;;;;;11.69;59.21;102674.02;1751783;80;21455;-57
2022/12/29 09:38:26;;;;;;;6.62;2.15;;;;;;;11.75;59.39;102668.83;1749548;81;20994;-56
2022/12/29 09:41:13;;;;;;;4.00;2.00;;;;;;;11.84;59.39;102673.67;1755507;80;21003;-56
2022/12/29 09:44:09;;;;;;;7.42;3.10;;;;;;;11.93;59.03;102670.22;1767568;81;21073;-56
2022/12/29 09:46:40;;;;;;;7.05;2.33;;;;;;;12.00;58.90;102658.92;1757949;80;21007;-56
2022/12/29 09:49:15;;;;;;;7.30;2.30;;;;;;;12.08;58.72;102662.42;1759938;80;21527;-56
2022/12/29 09:51:43;;;;;;;11.55;2.60;;;;;;;12.14;58.25;102672.87;1759830;81;21034;-56
2022/12/29 09:54:30;;;;;;;4.40;2.17;;;;;;;12.18;58.15;102665.05;1769561;80;21010;-56
2022/12/29 09:56:57;;;;;;;9.48;3.60;;;;;;;12.23;57.71;102665.06;1686501;84;21103;-56
2022/12/29 09:59:41;;;;;;;7.00;2.83;;;;;;;12.27;57.67;102662.90;1702978;84;21023;-56
2022/12/29 10:02:36;;;;;;;7.83;2.00;;;;;;;12.32;57.55;102661.61;1700125;84;21042;-56
2022/12/29 10:05:06;;;;;;;3.52;2.20;;;;;;;12.37;57.34;102652.90;1702108;84;21079;-56
2022/12/29 10:07:51;;;;;;;5.17;2.10;;;;;;;12.42;57.04;102653.79;1698536;83;21018;-56
2022/12/29 10:10:40;;;;;;;6.95;2.20;;;;;;;12.48;57.12;102649.88;1683099;84;21556;-56
2022/12/29 10:13:28;;;;;;;6.28;2.15;;;;;;;12.52;57.02;102639.86;1658537;85;21054;-56
2022/12/29 10:16:12;;;;;;;7.05;2.65;;;;;;;12.56;57.04;102632.47;1668531;84;21114;-56
2022/12/29 10:19:05;;;;;;;5.78;2.15;;;;;;;12.59;56.98;102618.08;1678763;84;21738;-56
2022/12/29 10:22:02;;;;;;;4.53;2.27;;;;;;;12.63;56.59;102617.20;1630906;87;21119;-56
2022/12/29 10:24:30;;;;;;;5.37;2.65;;;;;;;12.61;56.15;102611.12;1613365;87;21100;-56
2022/12/29 10:26:56;;;;;;;3.50;1.95;;;;;;;12.59;56.38;102594.58;1631574;87;21224;-56
2022/12/29 10:29:27;;;;;;;9.15;3.40;;;;;;;12.57;56.66;102591.56;1609703;88;21134;-58
2022/12/29 10:31:59;;;;;;;8.70;2.08;;;;;;;12.57;56.77;102589.80;1631970;87;21151;-56
2022/12/29 10:34:38;;;;;;;5.22;1.75;;;;;;;12.57;56.73;102591.10;1565980;91;21519;-56
2022/12/29 10:37:36;;;;;;;6.90;2.37;;;;;;;12.58;56.65;102577.19;1596040;89;21189;-56
2022/12/29 10:40:13;;;;;;;5.95;2.45;;;;;;;12.57;56.58;102570.20;1472872;97;21698;-56
2022/12/29 10:42:46;;;;;;;7.47;2.80;;;;;;;12.57;56.92;102564.98;1469281;97;21100;-56
2022/12/29 10:45:14;;;;;;;5.40;2.77;;;;;;;12.58;57.17;102558.91;1458770;98;21594;-56
2022/12/29 10:47:53;;;;;;;5.60;2.37;;;;;;;12.60;57.20;102555.86;1488065;96;21113;-56
2022/12/29 10:50:21;;;;;;;7.05;2.37;;;;;;;12.62;56.90;102554.11;1504445;94;21605;-56
2022/12/29 10:52:48;;;;;;;5.47;2.10;;;;;;;12.63;57.07;102547.16;1488675;95;21189;-56
2022/12/29 10:55:22;;;;;;;6.12;2.27;;;;;;;12.62;57.13;102552.80;1471147;96;21619;-56
2022/12/29 10:57:49;;;;;;;4.37;2.22;;;;;;;12.60;56.87;102541.49;1427041;99;21248;-56
2022/12/29 11:00:20;;;;;;;7.67;2.40;;;;;;;12.60;56.95;102543.23;1436339;99;21124;-56
2022/12/29 11:03:06;;;;;;;7.53;2.60;;;;;;;12.60;57.12;102544.11;1439588;100;21667;-56
2022/12/29 11:05:54;;;;;;;4.80;2.45;;;;;;;12.61;56.99;102537.99;1429718;99;21215;-56
2022/12/29 11:08:25;;;;;;;8.13;2.58;;;;;;;12.62;57.16;102529.30;1434609;99;21172;-56
2022/12/29 11:11:07;;;;;;;7.62;2.85;;;;;;;12.64;57.13;102521.02;1439482;98;21076;-56
2022/12/29 11:13:49;;;;;;;6.80;2.45;;;;;;;12.65;57.57;102526.66;1470724;95;21124;-56
2022/12/29 11:16:34;;;;;;;7.80;2.25;;;;;;;12.66;57.39;102523.20;1465066;98;21572;-56
2022/12/29 11:19:01;;;;;;;6.45;2.60;;;;;;;12.65;57.63;102517.98;1506354;94;21117;-56
2022/12/29 11:21:34;;;;;;;5.47;2.72;;;;;;;12.67;57.75;102514.51;1501436;94;21705;-56
2022/12/29 11:24:03;;;;;;;4.65;2.17;;;;;;;12.69;57.88;102516.67;1502476;94;21177;-56
2022/12/29 11:26:31;;;;;;;6.58;3.40;;;;;;;12.72;57.80;102504.89;1506328;94;21154;-56
2022/12/29 11:29:24;;;;;;;8.63;2.75;;;;;;;12.75;57.89;102504.91;1474730;96;21085;-56
2022/12/29 11:31:58;;;;;;;6.70;2.25;;;;;;;12.79;57.89;102505.33;1507247;94;21110;-56
2022/12/29 11:34:32;;;;;;;7.03;2.30;;;;;;;12.84;57.77;102499.62;1515531;93;21547;-56
2022/12/29 11:37:08;;;;;;;5.10;2.25;;;;;;;12.87;57.85;102506.59;1526078;93;21117;-57
2022/12/29 11:40:03;;;;;;;5.10;1.87;;;;;;;12.89;58.00;102507.45;1494473;95;21137;-57
2022/12/29 11:42:40;;;;;;;7.70;2.58;;;;;;;12.92;57.67;102510.08;1477062;96;21118;-57
2022/12/29 11:45:33;;;;;;;6.87;2.47;;;;;;;12.92;57.63;102510.92;1472286;96;21193;-57
2022/12/29 11:48:08;;;;;;;7.25;2.70;;;;;;;12.92;57.63;102516.14;1541716;92;21143;-57
2022/12/29 11:50:40;;;;;;;6.25;2.33;;;;;;;12.91;57.75;102509.20;1544218;92;21133;-57
2022/12/29 11:53:18;;;;;;;6.85;2.30;;;;;;;12.90;57.66;102516.59;1505083;94;21149;-57
2022/12/29 11:55:59;;;;;;;5.55;2.12;;;;;;;12.90;57.65;102517.89;1581058;89;21092;-57
2022/12/29 11:58:34;;;;;;;;;;;;;;;12.89;58.09;102514.86;1556604;90;21221;-57
2022/12/29 12:01:15;;;;;;;9.33;2.98;;;;;;;12.89;58.01;102505.72;1518448;93;20199;-57
2022/12/29 12:04:13;;;;;;;6.40;2.55;;;;;;;12.90;58.09;102517.05;1478424;96;21101;-57
2022/12/29 12:06:46;;;;;;;11.60;2.65;;;;;;;12.86;58.39;102520.09;1458537;97;21164;-57
2022/12/29 12:09:22;;;;;;;4.75;2.33;;;;;;;12.85;58.51;102517.48;1441544;98;21119;-58
2022/12/29 12:11:49;;;;;;;7.10;2.77;;;;;;;12.87;58.58;102504.86;1408432;100;21161;-57
2022/12/29 12:14:23;;;;;;;6.33;2.42;;;;;;;12.90;58.75;102503.98;1419260;100;21595;-57
2022/12/29 12:17:19;;;;;;;6.10;2.40;;;;;;;12.93;58.81;102505.27;1445190;97;21121;-57
2022/12/29 12:20:03;;;;;;;6.12;2.20;;;;;;;12.95;58.58;102487.41;1464861;97;21094;-57
2022/12/29 12:22:35;;;;;;;6.40;2.80;;;;;;;12.96;58.50;102493.52;1422405;100;21610;-57
2022/12/29 12:25:28;;;;;;;6.55;2.33;;;;;;;12.96;58.63;102480.45;1382567;102;21243;-57
2022/12/29 12:28:00;;;;;;;4.45;2.45;;;;;;;12.97;58.51;102477.81;1366169;103;21127;-58
2022/12/29 12:30:30;;;;;;;8.35;2.80;;;;;;;12.98;58.73;102481.31;1390373;102;21111;-57
2022/12/29 12:33:30;;;;;;;8.13;2.75;;;;;;;12.98;58.75;102479.54;1400352;101;21604;-57
2022/12/29 12:36:32;;;;;;;7.25;2.70;;;;;;;12.97;58.78;102475.20;1415183;100;21217;-57
2022/12/29 12:39:29;;;;;;;6.85;2.47;;;;;;;12.97;58.92;102459.52;1434231;98;21126;-57
2022/12/29 12:42:18;;;;;;;6.70;2.47;;;;;;;12.96;58.88;102457.77;1439967;97;21135;-57
2022/12/29 12:45:23;;;;;;;5.75;2.42;;;;;;;12.95;59.11;102463.89;1461310;96;21598;-57
2022/12/29 12:48:13;;;;;;;10.20;2.87;;;;;;;12.95;59.08;102461.28;1479421;96;22553;-57
2022/12/29 12:51:10;;;;;;;10.60;3.27;;;;;;;12.95;59.33;102461.28;1498981;95;21111;-57
2022/12/29 12:53:52;;;;;;;11.95;3.47;;;;;;;12.94;59.41;102459.52;1498239;93;21595;-57
2022/12/29 12:56:49;;;;;;;7.67;3.02;;;;;;;12.97;59.50;102456.91;1534496;92;21160;-57
2022/12/29 12:59:39;;;;;;;6.30;2.50;;;;;;;12.99;59.45;102449.94;1525512;93;21121;-57
2022/12/29 13:02:24;;;;;;;6.20;2.20;;;;;;;12.99;59.28;102459.08;1523506;93;21116;-57
2022/12/29 13:05:15;;;;;;;5.58;2.70;;;;;;;12.97;59.39;102454.30;1530620;93;21637;-57
2022/12/29 13:08:08;;;;;;;;;;;;;;;12.97;59.51;102459.52;1491738;95;21130;-57
2022/12/29 13:10:47;;;;;;;6.70;2.42;;;;;;;12.95;59.75;102467.81;1514018;93;20174;-57
2022/12/29 13:13:37;;;;;;;7.25;2.70;;;;;;;12.93;59.79;102473.48;1527804;94;21146;-57
2022/12/29 13:16:21;;;;;;;8.25;2.70;;;;;;;12.91;59.86;102481.77;1517909;92;21616;-57
2022/12/29 13:19:11;;;;;;;9.40;2.90;;;;;;;12.90;59.98;102480.47;1559091;89;21175;-57
2022/12/29 13:22:11;;;;;;;6.50;2.17;;;;;;;12.87;60.11;102480.04;1657687;82;21096;-57
2022/12/29 13:25:01;;;;;;;9.95;2.83;;;;;;;12.89;60.01;102474.37;1673677;84;21214;-57
2022/12/29 13:27:40;;;;;;;12.55;3.62;;;;;;;12.88;60.04;102476.53;1671011;85;21062;-57
2022/12/29 13:30:14;;;;;;;8.53;2.87;;;;;;;12.87;60.09;102476.55;1669377;83;21070;-57
2022/12/29 13:33:13;;;;;;;7.50;2.65;;;;;;;12.84;60.26;102476.12;1674303;84;21169;-57
2022/12/29 13:36:05;;;;;;;9.73;2.95;;;;;;;12.82;60.30;102472.64;1672989;84;21035;-57
2022/12/29 13:38:39;;;;;;;14.05;4.10;;;;;;;12.79;60.46;102466.56;1662369;84;21098;-57
2022/12/29 13:41:16;;;;;;;10.45;3.10;;;;;;;12.79;60.74;102470.06;1651218;84;21069;-57
2022/12/29 13:43:44;;;;;;;5.83;3.02;;;;;;;12.81;60.80;102475.27;1571757;89;21165;-57
2022/12/29 13:46:16;;;;;;;11.03;4.75;;;;;;;12.80;60.73;102474.39;1561962;90;21673;-57
2022/12/29 13:48:50;;;;;;;8.28;3.08;;;;;;;12.81;60.74;102476.15;1555302;92;21079;-57
2022/12/29 13:51:17;;;;;;;12.43;3.33;;;;;;;12.80;60.74;102474.39;1553614;92;21080;-57
2022/12/29 13:54:07;;;;;;;8.95;3.35;;;;;;;12.78;60.69;102472.22;1559869;91;21239;-57
2022/12/29 13:56:48;;;;;;;8.15;3.15;;;;;;;12.76;60.76;102469.17;1559984;91;21045;-57
2022/12/29 13:59:50;;;;;;;11.03;3.58;;;;;;;12.73;60.84;102466.16;1538693;92;21092;-57
2022/12/29 14:02:25;;;;;;;8.53;3.67;;;;;;;12.69;60.97;102459.22;1550819;92;21631;-57
2022/12/29 14:05:19;;;;;;;7.95;2.92;;;;;;;12.65;61.17;102460.06;1545956;92;21084;-57
2022/12/29 14:07:46;;;;;;;7.47;2.87;;;;;;;12.61;61.24;102458.34;1543465;92;21087;-57
2022/12/29 14:10:35;;;;;;;7.97;2.37;;;;;;;12.56;61.44;102464.03;1547279;92;21107;-57
2022/12/29 14:13:06;;;;;;;13.03;3.50;;;;;;;12.52;61.52;102457.08;1567154;91;21181;-57
2022/12/29 14:15:34;;;;;;;9.33;3.60;;;;;;;12.47;61.72;102452.76;1518424;94;21094;-57
2022/12/29 14:18:12;;;;;;;6.12;3.08;;;;;;;12.43;61.93;102445.77;1508551;94;21616;-57
2022/12/29 14:20:57;;;;;;;9.60;3.85;;;;;;;12.40;62.14;102446.67;1509254;95;21632;-57
2022/12/29 14:23:42;;;;;;;11.78;3.47;;;;;;;12.36;62.31;102441.03;1501723;95;21142;-57
2022/12/29 14:26:17;;;;;;;6.95;2.52;;;;;;;12.33;62.53;102443.63;1455773;98;21176;-57
2022/12/29 14:28:48;;;;;;;13.25;3.35;;;;;;;12.31;62.66;102441.47;1517613;94;21635;-57
2022/12/29 14:31:21;;;;;;;14.20;3.52;;;;;;;12.28;62.82;102442.79;1573694;91;21152;-57
2022/12/29 14:34:12;;;;;;;11.90;3.75;;;;;;;12.26;62.99;102445.84;1581526;90;21594;-57
2022/12/29 14:36:42;;;;;;;12.55;3.37;;;;;;;12.24;63.11;102439.75;1568487;90;21586;-57
2022/12/29 14:39:38;;;;;;;10.20;3.33;;;;;;;12.22;63.26;102444.08;1570996;90;21546;-57
2022/12/29 14:42:13;;;;;;;6.05;3.22;;;;;;;12.21;63.35;102444.97;1600249;89;21121;-57
2022/12/29 14:44:51;;;;;;;11.97;3.47;;;;;;;12.18;63.38;102429.30;1594759;89;21610;-58
2022/12/29 14:47:35;;;;;;;10.82;3.77;;;;;;;12.16;63.54;102431.92;1591479;90;21596;-58
2022/12/29 14:50:16;;;;;;;10.82;3.40;;;;;;;12.17;63.54;102434.09;1591705;89;21019;-57
2022/12/29 14:52:52;;;;;;;11.40;3.60;;;;;;;12.16;63.49;102427.13;1505068;94;21668;-57
2022/12/29 14:55:46;;;;;;;10.45;3.22;;;;;;;12.15;63.63;102424.10;1479444;95;21127;-57
2022/12/29 14:58:23;;;;;;;10.28;3.65;;;;;;;12.14;63.64;102430.17;1474691;96;21179;-57
2022/12/29 15:00:50;;;;;;;9.80;3.35;;;;;;;12.16;63.63;102425.82;1455608;98;21128;-57
2022/12/29 15:03:32;;;;;;;10.63;3.70;;;;;;;12.16;63.65;102426.70;1487135;96;21327;-57
2022/12/29 15:06:11;;;;;;;13.48;4.37;;;;;;;12.16;63.67;102437.14;1481346;95;21153;-57
2022/12/29 15:08:40;;;;;;;13.18;3.80;;;;;;;12.16;63.72;102438.87;1485206;95;21062;-57
2022/12/29 15:11:20;;;;;;;12.50;3.95;;;;;;;12.17;63.70;102439.32;1468042;95;21168;-57
2022/12/29 15:13:48;;;;;;;11.03;4.10;;;;;;;12.16;63.77;102433.22;1533632;93;21097;-57
2022/12/29 15:16:25;;;;;;;10.35;4.20;;;;;;;12.16;63.82;102436.26;1552811;88;21177;-57
2022/12/29 15:18:53;;;;;;;13.20;4.72;;;;;;;12.15;63.97;102430.20;1677888;84;21159;-56
2022/12/29 15:21:27;;;;;;;12.50;4.17;;;;;;;12.18;64.02;102439.73;1684499;84;21671;-57
2022/12/29 15:23:53;;;;;;;12.20;4.17;;;;;;;12.18;64.06;102427.99;1630297;87;21119;-57
2022/12/29 15:28:52;;;;;;;10.28;3.87;;;;;;;12.18;64.17;102417.55;1573766;90;21081;-56
2022/12/29 15:31:24;;;;;;;10.88;3.17;;;;;;;12.18;64.17;102418.86;1561598;91;21100;-57
2022/12/29 15:33:53;;;;;;;10.80;4.08;;;;;;;12.16;64.20;102407.55;1564150;91;21116;-58
2022/12/29 15:36:23;;;;;;;14.80;3.67;;;;;;;12.14;64.43;102414.52;1563721;91;21494;-57
2022/12/29 15:38:50;;;;;;;13.48;3.42;;;;;;;12.14;64.57;102411.91;1564482;91;21030;-57
2022/12/29 15:42:03;;;;;;;15.40;4.37;;;;;;;12.14;64.68;102413.21;1565269;91;21050;-57
2022/12/29 15:44:40;;;;;;;8.28;3.77;;;;;;;12.12;64.68;102412.34;1565569;91;21059;-57
2022/12/29 15:47:19;;;;;;;10.50;3.72;;;;;;;12.10;64.78;102412.79;1565961;91;21153;-56
2022/12/29 15:49:52;;;;;;;7.83;3.67;;;;;;;12.07;64.89;102410.20;1564503;91;21118;-56
2022/12/29 15:52:20;;;;;;;10.68;3.05;;;;;;;12.06;64.96;102411.94;1579890;90;21063;-57
2022/12/29 15:54:49;;;;;;;9.48;4.17;;;;;;;12.07;64.96;102415.42;1588168;90;21119;-57
2022/12/29 15:57:25;;;;;;;10.08;3.12;;;;;;;12.07;65.05;102418.91;1588070;90;21550;-57
2022/12/29 15:59:51;;;;;;;10.28;3.90;;;;;;;12.06;65.13;102414.55;1584581;89;21040;-57
2022/12/29 16:02:22;;;;;;;11.33;3.55;;;;;;;12.08;65.14;102424.97;1587049;90;21048;-56
2022/12/29 16:04:49;;;;;;;9.15;3.45;;;;;;;12.08;65.18;102427.58;1589960;90;21635;-57
2022/12/29 16:07:29;;;;;;;13.03;4.20;;;;;;;12.06;65.24;102434.54;1585630;90;21527;-57
2022/12/29 16:09:59;;;;;;;11.83;4.47;;;;;;;12.05;65.31;102440.64;1585892;90;21068;-57
2022/12/29 16:12:36;;;;;;;9.03;3.60;;;;;;;12.04;65.22;102438.89;1585961;90;21037;-57
2022/12/29 16:15:08;;;;;;;8.60;3.77;;;;;;;12.02;65.26;102444.12;1585897;90;21111;-56
2022/12/29 16:17:48;;;;;;;16.60;4.53;;;;;;;12.01;65.31;102448.89;1533413;93;21059;-57
2022/12/29 16:20:21;;;;;;;10.35;4.42;;;;;;;12.00;65.41;102455.42;1522030;90;21126;-57
2022/12/29 16:22:56;;;;;;;9.40;4.28;;;;;;;11.99;65.49;102451.09;1586633;90;21097;-57
2022/12/29 16:25:35;;;;;;;12.20;4.58;;;;;;;11.99;65.39;102457.15;1619616;86;21018;-57